Nibulon 5 — UUAZ2 — position and weather

sailwx.info

Track history (hours):
 
Tides and Currents Weather Stations Pressure Air Temp Water Temp Dewpoint Dewpoint Depression Visibility Wind Speed Wind Dir Waves Ship Positions

Nibulon 5

Last reported at 2018-Feb-24 17:55 UTC. Time now 2018-Feb-24 18:24 UTC.
Position N 46°36' E 031°35'.

Length 38 m; draft 2.6 m.

Type: Tug. MMSI: 272735000.

Date/timePositionNaut miles runAvg speedWind from/ knotsBaromVisibWave heightAir tempDewpointWater temp
2018-Feb-24 17:55N 46°36' E 031°35'0 0.0
2018-Feb-24 17:25N 46°36' E 031°35'0 0.0
2018-Feb-24 03:17N 46°37' E 031°35'4 3.0
2018-Feb-24 02:03N 46°35' E 031°40'1 3.4
2018-Feb-24 01:54N 46°35' E 031°41'1 3.5
2018-Feb-24 01:30N 46°35' E 031°43'2 3.5
2018-Feb-24 00:58N 46°36' E 031°46'2 3.4
2018-Feb-24 00:30N 46°36' E 031°48'2 3.3
2018-Feb-24 00:00N 46°35' E 031°50'2 3.3
2018-Feb-23 23:30N 46°35' E 031°53'2 3.3
2018-Feb-23 23:00N 46°34' E 031°55'2 3.3
2018-Feb-23 22:30N 46°34' E 031°57'2 3.2
2018-Feb-23 22:00N 46°33' E 031°59'2 3.3
2018-Feb-23 21:28N 46°33' E 032°02'2 3.4
2018-Feb-23 21:00N 46°32' E 032°04'3 0.1
2018-Feb-22 05:16N 46°32' E 032°08'1 3.6
2018-Feb-22 04:58N 46°32' E 032°07'2 3.6
2018-Feb-22 04:30N 46°32' E 032°04'2 3.8
2018-Feb-22 04:00N 46°32' E 032°02'2 4.0
2018-Feb-22 03:30N 46°33' E 031°59'2 3.9
2018-Feb-22 03:00N 46°34' E 031°56'2 4.0
2018-Feb-22 02:30N 46°34' E 031°54'2 3.9
2018-Feb-22 02:00N 46°35' E 031°51'2 4.0
2018-Feb-22 01:30N 46°35' E 031°48'2 4.0
2018-Feb-22 01:00N 46°35' E 031°45'2 3.8
2018-Feb-22 00:30N 46°35' E 031°42'2 3.7
2018-Feb-21 23:59N 46°35' E 031°40'3 3.3
2018-Feb-21 23:03N 46°36' E 031°35'0 0.3
2018-Feb-21 23:00N 46°36' E 031°35'0 0.0
2018-Feb-21 22:27N 46°36' E 031°35'0 0.4
2018-Feb-21 22:00N 46°36' E 031°35'5 3.6
2018-Feb-21 20:43N 46°36' E 031°28'1 0.2
2018-Feb-21 15:57N 46°35' E 031°27'4 3.5
2018-Feb-21 14:47N 46°35' E 031°33'1 3.9
2018-Feb-21 14:29N 46°35' E 031°34'1 0.5
2018-Feb-21 12:09N 46°36' E 031°35'0 0.2
2018-Feb-21 11:59N 46°36' E 031°35'0 0.1
2018-Feb-21 03:44N 46°37' E 031°35'0 0.0
2018-Feb-21 03:14N 46°37' E 031°35'0 0.0
2018-Feb-21 02:47N 46°37' E 031°35'0 0.0
2018-Feb-21 02:05N 46°36' E 031°35'0 0.0
2018-Feb-21 01:50N 46°36' E 031°35'0 0.0
2018-Feb-21 01:14N 46°36' E 031°35'0 0.0
2018-Feb-21 00:53N 46°37' E 031°35'0 0.0
2018-Feb-21 00:29N 46°37' E 031°35'0 0.0
2018-Feb-20 23:23N 46°37' E 031°35'0 0.0
2018-Feb-20 22:53N 46°37' E 031°35'0 0.0
2018-Feb-20 22:26N 46°37' E 031°35'0 0.0
2018-Feb-20 21:59N 46°37' E 031°35'0 0.0
2018-Feb-20 21:29N 46°37' E 031°35'0 0.2
2018-Feb-20 21:00N 46°36' E 031°35'4 4.0
2018-Feb-20 20:02N 46°36' E 031°29'0 5.5
2018-Feb-20 20:00N 46°36' E 031°29'3 0.1
2018-Feb-19 10:22N 46°35' E 031°34'2 4.6
2018-Feb-19 10:00N 46°36' E 031°35'0 0.0
2018-Feb-19 03:55N 46°37' E 031°35'0 0.6
2018-Feb-19 03:29N 46°36' E 031°35'0 0.0
2018-Feb-19 02:56N 46°36' E 031°35'0 0.0
2018-Feb-19 02:29N 46°36' E 031°35'0 0.0
2018-Feb-19 01:59N 46°36' E 031°35'0 0.0
2018-Feb-19 01:26N 46°36' E 031°35'0 0.0
2018-Feb-19 00:56N 46°36' E 031°35'0 0.0
2018-Feb-19 00:20N 46°36' E 031°35'0 0.0
2018-Feb-18 23:59N 46°36' E 031°35'0 0.1
2018-Feb-18 23:29N 46°36' E 031°35'1 2.0
2018-Feb-18 22:52N 46°36' E 031°37'1 3.4
2018-Feb-18 22:30N 46°35' E 031°39'2 3.5
2018-Feb-18 22:00N 46°35' E 031°41'2 3.5
2018-Feb-18 21:30N 46°36' E 031°44'2 3.5
2018-Feb-18 21:00N 46°36' E 031°46'2 3.5
2018-Feb-18 20:30N 46°36' E 031°49'2 3.3
2018-Feb-18 20:00N 46°37' E 031°51'2 3.3
2018-Feb-18 19:30N 46°37' E 031°53'2 3.3
2018-Feb-18 19:00N 46°38' E 031°55'2 3.2
2018-Feb-18 18:30N 46°40' E 031°56'2 3.2
2018-Feb-18 18:00N 46°41' E 031°56'2 3.3
2018-Feb-18 17:30N 46°43' E 031°56'1 3.0
2018-Feb-18 17:00N 46°44' E 031°55'2 3.1
2018-Feb-18 16:30N 46°45' E 031°53'2 3.4
2018-Feb-18 16:00N 46°47' E 031°53'2 3.2
2018-Feb-18 15:30N 46°49' E 031°54'2 3.5
2018-Feb-18 15:00N 46°50' E 031°55'2 3.6
2018-Feb-18 14:30N 46°51' E 031°57'2 3.5
2018-Feb-18 14:00N 46°52' E 031°59'2 3.5
2018-Feb-18 13:30N 46°54' E 032°00'2 3.4
2018-Feb-18 13:00N 46°56' E 032°01'2 3.3
2018-Feb-18 12:30N 46°56' E 031°59'0 0.4
2018-Feb-18 12:00N 46°56' E 031°59'0 0.6
2018-Feb-18 11:28N 46°57' E 031°59'0 0.5
2018-Feb-18 11:00N 46°56' E 031°59'0 0.6
2018-Feb-18 10:25N 46°56' E 031°59'0 0.7
2018-Feb-18 09:58N 46°56' E 031°59'0 0.3
2018-Feb-18 09:30N 46°56' E 031°59'0 0.4
2018-Feb-18 08:58N 46°57' E 031°59'0 0.0
2018-Feb-18 08:28N 46°57' E 031°59'0 0.7
2018-Feb-18 08:00N 46°57' E 031°59'0 0.7
2018-Feb-18 07:30N 46°57' E 031°60'0 0.9
2018-Feb-18 06:58N 46°57' E 031°59'0 0.0
2018-Feb-18 06:28N 46°57' E 031°59'0 0.0
2018-Feb-18 05:58N 46°57' E 031°59'0 0.0
2018-Feb-18 05:28N 46°57' E 031°59'0 0.0
2018-Feb-18 04:58N 46°57' E 031°59'0 0.0
2018-Feb-18 04:21N 46°57' E 031°59'0 0.7
2018-Feb-18 04:00N 46°57' E 031°59'1 2.3
2018-Feb-18 03:31N 46°56' E 032°00'2 4.3
2018-Feb-18 03:00N 46°54' E 032°00'3 5.2
2018-Feb-18 02:30N 46°52' E 031°58'3 5.2
2018-Feb-18 02:00N 46°50' E 031°56'3 5.3
2018-Feb-18 01:31N 46°48' E 031°53'3 5.5
2018-Feb-18 01:00N 46°45' E 031°53'3 5.0
2018-Feb-18 00:30N 46°43' E 031°56'3 5.3
2018-Feb-18 00:01N 46°41' E 031°56'3 5.1
2018-Feb-17 23:30N 46°38' E 031°55'2 4.9
2018-Feb-17 23:00N 46°37' E 031°52'2 4.9
2018-Feb-17 22:30N 46°36' E 031°49'3 5.0
2018-Feb-17 22:00N 46°35' E 031°45'3 4.9
2018-Feb-17 21:29N 46°35' E 031°42'2 5.1
2018-Feb-17 21:00N 46°35' E 031°38'3 5.1
2018-Feb-17 20:29N 46°35' E 031°34'3 4.8
2018-Feb-17 19:46N 46°36' E 031°30'1 5.1
2018-Feb-17 19:29N 46°35' E 031°28'2 4.9
2018-Feb-17 18:59N 46°35' E 031°24'6 0.5
2018-Feb-17 05:57N 46°34' E 031°16'1 2.8
2018-Feb-17 05:26N 46°34' E 031°14'0 0.4
2018-Feb-17 04:58N 46°34' E 031°13'2 0.1
2018-Feb-16 17:21N 46°34' E 031°16'7 0.7
2018-Feb-16 07:16N 46°35' E 031°26'5 0.4
2018-Feb-15 18:15N 46°35' E 031°33'1 4.4
2018-Feb-15 18:01N 46°35' E 031°34'1 0.1
2018-Feb-15 10:19N 46°36' E 031°35'0 0.0
2018-Feb-15 09:39N 46°36' E 031°35'  
Track history (hours):
 
Tides and Currents Weather Stations Pressure Air Temp Water Temp Dewpoint Dewpoint Depression Visibility Wind Speed Wind Dir Waves Ship Positions

Nibulon 5

Last reported at 2018-Feb-24 17:55 UTC. Time now 2018-Feb-24 18:24 UTC.
Position N 46°36' E 031°35'.

Length 38 m; draft 2.6 m.

Type: Tug. MMSI: 272735000.

Date/timePositionNaut miles runAvg speedWind from/ knotsBaromVisibWave heightAir tempDewpointWater temp
2018-Feb-24 17:55N 46°36' E 031°35'0 0.0
2018-Feb-24 17:25N 46°36' E 031°35'0 0.0
2018-Feb-24 03:17N 46°37' E 031°35'4 3.0
2018-Feb-24 02:03N 46°35' E 031°40'1 3.4
2018-Feb-24 01:54N 46°35' E 031°41'1 3.5
2018-Feb-24 01:30N 46°35' E 031°43'2 3.5
2018-Feb-24 00:58N 46°36' E 031°46'2 3.4
2018-Feb-24 00:30N 46°36' E 031°48'2 3.3
2018-Feb-24 00:00N 46°35' E 031°50'2 3.3
2018-Feb-23 23:30N 46°35' E 031°53'2 3.3
2018-Feb-23 23:00N 46°34' E 031°55'2 3.3
2018-Feb-23 22:30N 46°34' E 031°57'2 3.2
2018-Feb-23 22:00N 46°33' E 031°59'2 3.3
2018-Feb-23 21:28N 46°33' E 032°02'2 3.4
2018-Feb-23 21:00N 46°32' E 032°04'3 0.1
2018-Feb-22 05:16N 46°32' E 032°08'1 3.6
2018-Feb-22 04:58N 46°32' E 032°07'2 3.6
2018-Feb-22 04:30N 46°32' E 032°04'2 3.8
2018-Feb-22 04:00N 46°32' E 032°02'2 4.0
2018-Feb-22 03:30N 46°33' E 031°59'2 3.9
2018-Feb-22 03:00N 46°34' E 031°56'2 4.0
2018-Feb-22 02:30N 46°34' E 031°54'2 3.9
2018-Feb-22 02:00N 46°35' E 031°51'2 4.0
2018-Feb-22 01:30N 46°35' E 031°48'2 4.0
2018-Feb-22 01:00N 46°35' E 031°45'2 3.8
2018-Feb-22 00:30N 46°35' E 031°42'2 3.7
2018-Feb-21 23:59N 46°35' E 031°40'3 3.3
2018-Feb-21 23:03N 46°36' E 031°35'0 0.3
2018-Feb-21 23:00N 46°36' E 031°35'0 0.0
2018-Feb-21 22:27N 46°36' E 031°35'0 0.4
2018-Feb-21 22:00N 46°36' E 031°35'5 3.6
2018-Feb-21 20:43N 46°36' E 031°28'1 0.2
2018-Feb-21 15:57N 46°35' E 031°27'4 3.5
2018-Feb-21 14:47N 46°35' E 031°33'1 3.9
2018-Feb-21 14:29N 46°35' E 031°34'1 0.5
2018-Feb-21 12:09N 46°36' E 031°35'0 0.2
2018-Feb-21 11:59N 46°36' E 031°35'0 0.1
2018-Feb-21 03:44N 46°37' E 031°35'0 0.0
2018-Feb-21 03:14N 46°37' E 031°35'0 0.0
2018-Feb-21 02:47N 46°37' E 031°35'0 0.0
2018-Feb-21 02:05N 46°36' E 031°35'0 0.0
2018-Feb-21 01:50N 46°36' E 031°35'0 0.0
2018-Feb-21 01:14N 46°36' E 031°35'0 0.0
2018-Feb-21 00:53N 46°37' E 031°35'0 0.0
2018-Feb-21 00:29N 46°37' E 031°35'0 0.0
2018-Feb-20 23:23N 46°37' E 031°35'0 0.0
2018-Feb-20 22:53N 46°37' E 031°35'0 0.0
2018-Feb-20 22:26N 46°37' E 031°35'0 0.0
2018-Feb-20 21:59N 46°37' E 031°35'0 0.0
2018-Feb-20 21:29N 46°37' E 031°35'0 0.2
2018-Feb-20 21:00N 46°36' E 031°35'4 4.0
2018-Feb-20 20:02N 46°36' E 031°29'0 5.5
2018-Feb-20 20:00N 46°36' E 031°29'3 0.1
2018-Feb-19 10:22N 46°35' E 031°34'2 4.6
2018-Feb-19 10:00N 46°36' E 031°35'0 0.0
2018-Feb-19 03:55N 46°37' E 031°35'0 0.6
2018-Feb-19 03:29N 46°36' E 031°35'0 0.0
2018-Feb-19 02:56N 46°36' E 031°35'0 0.0
2018-Feb-19 02:29N 46°36' E 031°35'0 0.0
2018-Feb-19 01:59N 46°36' E 031°35'0 0.0
2018-Feb-19 01:26N 46°36' E 031°35'0 0.0
2018-Feb-19 00:56N 46°36' E 031°35'0 0.0
2018-Feb-19 00:20N 46°36' E 031°35'0 0.0
2018-Feb-18 23:59N 46°36' E 031°35'0 0.1
2018-Feb-18 23:29N 46°36' E 031°35'1 2.0
2018-Feb-18 22:52N 46°36' E 031°37'1 3.4
2018-Feb-18 22:30N 46°35' E 031°39'2 3.5
2018-Feb-18 22:00N 46°35' E 031°41'2 3.5
2018-Feb-18 21:30N 46°36' E 031°44'2 3.5
2018-Feb-18 21:00N 46°36' E 031°46'2 3.5
2018-Feb-18 20:30N 46°36' E 031°49'2 3.3
2018-Feb-18 20:00N 46°37' E 031°51'2 3.3
2018-Feb-18 19:30N 46°37' E 031°53'2 3.3
2018-Feb-18 19:00N 46°38' E 031°55'2 3.2
2018-Feb-18 18:30N 46°40' E 031°56'2 3.2
2018-Feb-18 18:00N 46°41' E 031°56'2 3.3
2018-Feb-18 17:30N 46°43' E 031°56'1 3.0
2018-Feb-18 17:00N 46°44' E 031°55'2 3.1
2018-Feb-18 16:30N 46°45' E 031°53'2 3.4
2018-Feb-18 16:00N 46°47' E 031°53'2 3.2
2018-Feb-18 15:30N 46°49' E 031°54'2 3.5
2018-Feb-18 15:00N 46°50' E 031°55'2 3.6
2018-Feb-18 14:30N 46°51' E 031°57'2 3.5
2018-Feb-18 14:00N 46°52' E 031°59'2 3.5
2018-Feb-18 13:30N 46°54' E 032°00'2 3.4
2018-Feb-18 13:00N 46°56' E 032°01'2 3.3
2018-Feb-18 12:30N 46°56' E 031°59'0 0.4
2018-Feb-18 12:00N 46°56' E 031°59'0 0.6
2018-Feb-18 11:28N 46°57' E 031°59'0 0.5
2018-Feb-18 11:00N 46°56' E 031°59'0 0.6
2018-Feb-18 10:25N 46°56' E 031°59'0 0.7
2018-Feb-18 09:58N 46°56' E 031°59'0 0.3
2018-Feb-18 09:30N 46°56' E 031°59'0 0.4
2018-Feb-18 08:58N 46°57' E 031°59'0 0.0
2018-Feb-18 08:28N 46°57' E 031°59'0 0.7
2018-Feb-18 08:00N 46°57' E 031°59'0 0.7
2018-Feb-18 07:30N 46°57' E 031°60'0 0.9
2018-Feb-18 06:58N 46°57' E 031°59'0 0.0
2018-Feb-18 06:28N 46°57' E 031°59'0 0.0
2018-Feb-18 05:58N 46°57' E 031°59'0 0.0
2018-Feb-18 05:28N 46°57' E 031°59'0 0.0
2018-Feb-18 04:58N 46°57' E 031°59'0 0.0
2018-Feb-18 04:21N 46°57' E 031°59'0 0.7
2018-Feb-18 04:00N 46°57' E 031°59'1 2.3
2018-Feb-18 03:31N 46°56' E 032°00'2 4.3
2018-Feb-18 03:00N 46°54' E 032°00'3 5.2
2018-Feb-18 02:30N 46°52' E 031°58'3 5.2
2018-Feb-18 02:00N 46°50' E 031°56'3 5.3
2018-Feb-18 01:31N 46°48' E 031°53'3 5.5
2018-Feb-18 01:00N 46°45' E 031°53'3 5.0
2018-Feb-18 00:30N 46°43' E 031°56'3 5.3
2018-Feb-18 00:01N 46°41' E 031°56'3 5.1
2018-Feb-17 23:30N 46°38' E 031°55'2 4.9
2018-Feb-17 23:00N 46°37' E 031°52'2 4.9
2018-Feb-17 22:30N 46°36' E 031°49'3 5.0
2018-Feb-17 22:00N 46°35' E 031°45'3 4.9
2018-Feb-17 21:29N 46°35' E 031°42'2 5.1
2018-Feb-17 21:00N 46°35' E 031°38'3 5.1
2018-Feb-17 20:29N 46°35' E 031°34'3 4.8
2018-Feb-17 19:46N 46°36' E 031°30'1 5.1
2018-Feb-17 19:29N 46°35' E 031°28'2 4.9
2018-Feb-17 18:59N 46°35' E 031°24'6 0.5
2018-Feb-17 05:57N 46°34' E 031°16'1 2.8
2018-Feb-17 05:26N 46°34' E 031°14'0 0.4
2018-Feb-17 04:58N 46°34' E 031°13'2 0.1
2018-Feb-16 17:21N 46°34' E 031°16'7 0.7
2018-Feb-16 07:16N 46°35' E 031°26'5 0.4
2018-Feb-15 18:15N 46°35' E 031°33'1 4.4
2018-Feb-15 18:01N 46°35' E 031°34'1 0.1
2018-Feb-15 10:19N 46°36' E 031°35'0 0.0
2018-Feb-15 09:39N 46°36' E 031°35'  

Dump ship's entire track history